Station History

Weather Underground - logo

Station Historical Data
Daily Summary for August 31, 2017 Units:  English    Metric   Both
« Previous Day
Next Day »
Daily Weekly Monthly Yearly Custom
  High: Low: Average:
Temperature: 101.5 °F 70.2 °F 85.2 °F
Dew Point: 69.2 °F 61.0 °F 65.3 °F
Humidity: 84 % 28 % 55 %
Wind Speed: 5.8 mph 0.0 mph 1.1 mph
Wind Gust: 5.8 mph - -
Wind:- - SW
Pressure: 29.78 in 29.64 in -
Precipitation: 0.00 in    
Historical Graphs
 
 
Tabular Data for August 31, 2017
Time Temperature Dew Point Pressure Wind Wind Speed Wind Gust Humidity Rainfall Rate (Hourly)
00:03 77.1 °F 67.4 °F 29.75 in Calm     72 % 0.00 in
00:08 77.1 °F 67.8 °F 29.75 in Calm     73 % 0.00 in
00:13 77.0 °F 67.7 °F 29.75 in Calm     73 % 0.00 in
00:18 76.8 °F 67.5 °F 29.75 in Calm     73 % 0.00 in
00:23 76.6 °F 67.7 °F 29.75 in Calm     74 % 0.00 in
00:28 76.4 °F 67.1 °F 29.74 in Calm     73 % 0.00 in
00:33 76.1 °F 66.8 °F 29.74 in Calm     73 % 0.00 in
00:38 75.9 °F 66.6 °F 29.74 in Calm     73 % 0.00 in
00:43 75.8 °F 66.5 °F 29.74 in Calm     73 % 0.00 in
00:48 75.8 °F 66.5 °F 29.75 in Calm     73 % 0.00 in
00:53 75.8 °F 66.5 °F 29.75 in Calm     73 % 0.00 in
00:58 76.2 °F 66.5 °F 29.75 in Calm     72 % 0.00 in
01:03 76.2 °F 66.5 °F 29.75 in Calm     72 % 0.00 in
01:08 76.2 °F 66.9 °F 29.75 in Calm     73 % 0.00 in
01:13 76.2 °F 66.5 °F 29.75 in Calm     72 % 0.00 in
01:18 76.2 °F 66.5 °F 29.75 in Calm     72 % 0.00 in
01:23 76.0 °F 65.9 °F 29.75 in Calm     71 % 0.00 in
01:28 75.7 °F 66.4 °F 29.75 in Calm     73 % 0.00 in
01:33 75.6 °F 66.3 °F 29.75 in Calm     73 % 0.00 in
01:38 75.4 °F 65.7 °F 29.75 in Calm     72 % 0.00 in
01:43 75.2 °F 65.1 °F 29.75 in Calm     71 % 0.00 in
01:44 75.2 °F 65.1 °F 29.75 in Calm     71 % 0.00 in
01:49 75.0 °F 65.4 °F 29.75 in Calm     72 % 0.00 in
01:54 74.9 °F 65.7 °F 29.75 in Calm     73 % 0.00 in
01:59 74.8 °F 66.3 °F 29.75 in Calm     75 % 0.00 in
02:04 74.8 °F 66.0 °F 29.75 in Calm     74 % 0.00 in
02:09 74.8 °F 66.3 °F 29.75 in Calm     75 % 0.00 in
02:14 74.7 °F 65.5 °F 29.75 in Calm     73 % 0.00 in
02:19 74.7 °F 65.5 °F 29.75 in Calm     73 % 0.00 in
02:24 74.6 °F 66.1 °F 29.75 in Calm     75 % 0.00 in
02:27 74.6 °F 66.5 °F 29.75 in Calm     76 % 0.00 in
02:32 74.6 °F 66.1 °F 29.75 in Calm     75 % 0.00 in
02:37 74.5 °F 66.1 °F 29.75 in Calm     75 % 0.00 in
02:42 74.4 °F 65.6 °F 29.75 in Calm     74 % 0.00 in
02:47 74.4 °F 66.0 °F 29.75 in Calm     75 % 0.00 in
02:52 74.3 °F 65.5 °F 29.75 in Calm     74 % 0.00 in
02:57 74.3 °F 65.9 °F 29.75 in Calm     75 % 0.00 in
03:02 74.2 °F 66.1 °F 29.75 in Calm     76 % 0.00 in
03:07 74.0 °F 65.6 °F 29.75 in Calm     75 % 0.00 in
03:12 73.9 °F 66.2 °F 29.75 in Calm     77 % 0.00 in
03:17 73.8 °F 65.8 °F 29.75 in Calm     76 % 0.00 in
03:22 73.9 °F 66.2 °F 29.74 in Calm     77 % 0.00 in
03:27 73.8 °F 65.8 °F 29.75 in Calm     76 % 0.00 in
03:32 73.6 °F 65.6 °F 29.74 in Calm     76 % 0.00 in
03:38 73.5 °F 66.6 °F 29.74 in Calm     79 % 0.00 in
03:43 73.6 °F 66.3 °F 29.74 in Calm     78 % 0.00 in
03:48 73.5 °F 66.2 °F 29.74 in Calm     78 % 0.00 in
03:53 73.3 °F 65.7 °F 29.74 in Calm     77 % 0.00 in
03:58 73.4 °F 66.1 °F 29.74 in Calm     78 % 0.00 in
04:03 73.3 °F 66.0 °F 29.74 in Calm     78 % 0.00 in
04:08 73.1 °F 66.6 °F 29.74 in Calm     80 % 0.00 in
04:13 72.9 °F 66.0 °F 29.73 in Calm     79 % 0.00 in
04:18 72.6 °F 65.3 °F 29.73 in Calm     78 % 0.00 in
04:23 72.5 °F 66.0 °F 29.73 in Calm     80 % 0.00 in
04:28 72.4 °F 66.2 °F 29.73 in Calm     81 % 0.00 in
04:33 72.2 °F 65.7 °F 29.73 in Calm     80 % 0.00 in
04:38 72.5 °F 65.6 °F 29.73 in Calm     79 % 0.00 in
04:43 72.8 °F 66.3 °F 29.73 in Calm     80 % 0.00 in
04:48 72.7 °F 66.2 °F 29.73 in Calm   0.1 mph 80 % 0.00 in
04:53 72.4 °F 66.2 °F 29.73 in Calm     81 % 0.00 in
04:58 72.2 °F 66.0 °F 29.73 in Calm     81 % 0.00 in
05:03 72.0 °F 65.8 °F 29.73 in Calm     81 % 0.00 in
05:08 71.8 °F 64.6 °F 29.73 in Calm     78 % 0.00 in
05:13 72.0 °F 65.1 °F 29.74 in Calm     79 % 0.00 in
05:14 72.0 °F 65.1 °F 29.74 in Calm   0.1 mph 79 % 0.00 in
05:19 71.7 °F 64.5 °F 29.74 in Calm     78 % 0.00 in
05:24 71.4 °F 65.3 °F 29.74 in Calm     81 % 0.00 in
05:29 71.1 °F 65.7 °F 29.74 in Calm     83 % 0.00 in
05:34 70.7 °F 65.3 °F 29.74 in Calm     83 % 0.00 in
05:39 70.6 °F 65.5 °F 29.75 in Calm     84 % 0.00 in
05:44 70.5 °F 65.4 °F 29.74 in Calm     84 % 0.00 in
05:49 70.5 °F 65.4 °F 29.75 in SE 1.2 mph   84 % 0.00 in
05:54 70.5 °F 65.1 °F 29.75 in Calm     83 % 0.00 in
05:59 70.6 °F 65.2 °F 29.75 in Calm     83 % 0.00 in
06:04 70.5 °F 65.1 °F 29.75 in ESE 1.2 mph   83 % 0.00 in
06:09 70.6 °F 64.8 °F 29.75 in ESE 2.0 mph 2.0 mph 82 % 0.00 in
06:14 70.5 °F 64.7 °F 29.75 in ESE 1.2 mph 1.2 mph 82 % 0.00 in
06:19 70.4 °F 64.3 °F 29.75 in Calm   0.1 mph 81 % 0.00 in
06:24 70.5 °F 64.0 °F 29.76 in ESE 1.2 mph   80 % 0.00 in
06:29 70.4 °F 63.9 °F 29.76 in Calm     80 % 0.00 in
06:34 70.3 °F 63.8 °F 29.76 in ESE 1.2 mph   80 % 0.00 in
06:39 70.3 °F 63.8 °F 29.76 in Calm     80 % 0.00 in
06:44 70.2 °F 63.4 °F 29.76 in ESE 1.2 mph 1.2 mph 79 % 0.00 in
06:50 70.4 °F 63.6 °F 29.77 in East 1.2 mph 1.2 mph 79 % 0.00 in
06:55 70.5 °F 63.3 °F 29.76 in East 1.2 mph 1.2 mph 78 % 0.00 in
07:00 70.7 °F 63.5 °F 29.77 in East 1.2 mph 1.2 mph 78 % 0.00 in
07:05 70.7 °F 63.5 °F 29.77 in East 1.0 mph 1.0 mph 78 % 0.00 in
07:10 70.9 °F 63.3 °F 29.77 in East 1.2 mph 1.2 mph 77 % 0.00 in
07:15 71.2 °F 64.0 °F 29.77 in Calm     78 % 0.00 in
07:19 71.3 °F 63.7 °F 29.77 in East 1.2 mph   77 % 0.00 in
07:24 71.6 °F 64.4 °F 29.77 in East 1.2 mph   78 % 0.00 in
07:29 71.8 °F 64.2 °F 29.77 in East 1.2 mph 1.2 mph 77 % 0.00 in
07:34 72.0 °F 64.0 °F 29.77 in East 1.2 mph   76 % 0.00 in
07:39 72.5 °F 63.7 °F 29.77 in ESE 1.2 mph 1.2 mph 74 % 0.00 in
07:44 72.9 °F 63.7 °F 29.78 in ESE 1.2 mph 1.2 mph 73 % 0.00 in
07:49 73.4 °F 63.4 °F 29.78 in ESE 1.2 mph   71 % 0.00 in
07:54 74.2 °F 63.4 °F 29.78 in East 1.2 mph 1.2 mph 69 % 0.00 in
07:59 75.1 °F 63.4 °F 29.77 in Calm     67 % 0.00 in
08:04 76.1 °F 63.0 °F 29.77 in SSE 1.0 mph 1.0 mph 64 % 0.00 in
08:09 76.8 °F 62.8 °F 29.77 in SE 1.2 mph   62 % 0.00 in
08:14 77.4 °F 63.4 °F 29.77 in South 1.2 mph 1.2 mph 62 % 0.00 in
08:19 78.3 °F 63.7 °F 29.77 in Calm     61 % 0.00 in
08:24 79.0 °F 63.4 °F 29.77 in South 1.2 mph 1.2 mph 59 % 0.00 in
08:29 79.5 °F 63.4 °F 29.77 in SSE 2.3 mph   58 % 0.00 in
08:34 79.7 °F 63.6 °F 29.77 in ENE 1.0 mph 1.0 mph 58 % 0.00 in
08:39 80.2 °F 63.6 °F 29.78 in WNW 1.2 mph   57 % 0.00 in
08:44 80.6 °F 64.0 °F 29.77 in WNW 1.2 mph   57 % 0.00 in
08:45 80.7 °F 64.1 °F 29.77 in WNW 1.2 mph   57 % 0.00 in
08:50 81.4 °F 62.6 °F 29.77 in Calm     53 % 0.00 in
08:55 81.6 °F 62.8 °F 29.77 in Calm     53 % 0.00 in
09:00 81.9 °F 63.6 °F 29.77 in ESE 1.2 mph   54 % 0.00 in
09:05 82.3 °F 63.5 °F 29.78 in SSE 1.2 mph 1.2 mph 53 % 0.00 in
09:10 82.5 °F 62.5 °F 29.78 in ESE 1.2 mph 1.2 mph 51 % 0.00 in
09:15 82.8 °F 63.4 °F 29.77 in NE 2.3 mph 2.3 mph 52 % 0.00 in
09:20 83.3 °F 62.7 °F 29.77 in South 1.2 mph 1.2 mph 50 % 0.00 in
09:25 83.3 °F 62.7 °F 29.77 in Calm     50 % 0.00 in
09:30 83.9 °F 62.7 °F 29.77 in Calm     49 % 0.00 in
09:35 84.4 °F 62.6 °F 29.77 in NNW 2.3 mph 2.3 mph 48 % 0.00 in
09:40 84.3 °F 63.1 °F 29.77 in SSE 1.2 mph   49 % 0.00 in
09:45 85.0 °F 63.1 °F 29.77 in WNW 2.3 mph 2.3 mph 48 % 0.00 in
09:50 85.1 °F 63.8 °F 29.77 in West 2.3 mph 2.3 mph 49 % 0.00 in
09:55 85.5 °F 64.2 °F 29.77 in NNW 2.3 mph 2.3 mph 49 % 0.00 in
10:00 85.9 °F 63.9 °F 29.77 in SSW 2.3 mph 2.3 mph 48 % 0.00 in
10:05 86.5 °F 64.5 °F 29.77 in Calm     48 % 0.00 in
10:10 86.5 °F 64.5 °F 29.77 in West 2.0 mph 2.0 mph 48 % 0.00 in
10:15 87.1 °F 65.0 °F 29.77 in Calm     48 % 0.00 in
10:20 87.7 °F 63.7 °F 29.77 in ESE 3.5 mph 3.5 mph 45 % 0.00 in
10:25 87.7 °F 64.4 °F 29.77 in ESE 1.2 mph 1.2 mph 46 % 0.00 in
10:30 88.1 °F 64.7 °F 29.77 in NNW 2.3 mph 2.3 mph 46 % 0.00 in
10:35 89.0 °F 65.5 °F 29.77 in Calm   0.2 mph 46 % 0.00 in
10:40 89.6 °F 64.1 °F 29.77 in NW 1.2 mph 1.2 mph 43 % 0.00 in
10:45 89.9 °F 65.1 °F 29.77 in NNW 2.3 mph 2.3 mph 44 % 0.00 in
10:50 90.1 °F 63.9 °F 29.77 in SE 3.5 mph 3.5 mph 42 % 0.00 in
10:55 90.7 °F 64.5 °F 29.77 in SE 2.3 mph 2.3 mph 42 % 0.00 in
11:00 91.2 °F 64.9 °F 29.77 in SSE 2.3 mph 2.3 mph 42 % 0.00 in
11:05 91.6 °F 64.6 °F 29.77 in South 3.5 mph 3.5 mph 41 % 0.00 in
11:10 92.0 °F 62.8 °F 29.77 in South 3.5 mph 3.5 mph 38 % 0.00 in
11:15 91.8 °F 64.0 °F 29.77 in SE 2.3 mph 2.3 mph 40 % 0.00 in
11:20 92.1 °F 63.6 °F 29.77 in SSE 3.5 mph 3.5 mph 39 % 0.00 in
11:25 92.4 °F 63.1 °F 29.77 in SW 2.3 mph 2.3 mph 38 % 0.00 in
11:30 92.6 °F 62.5 °F 29.77 in SSE 3.5 mph 3.5 mph 37 % 0.00 in
11:35 92.6 °F 62.5 °F 29.77 in South 2.0 mph 2.0 mph 37 % 0.00 in
11:40 92.6 °F 61.0 °F 29.76 in SE 5.8 mph 5.8 mph 35 % 0.00 in
11:45 92.9 °F 62.8 °F 29.76 in South 2.3 mph 2.3 mph 37 % 0.00 in
11:50 93.6 °F 64.2 °F 29.76 in SSE 2.0 mph 2.0 mph 38 % 0.00 in
11:55 94.0 °F 64.5 °F 29.76 in SSE 2.3 mph 2.3 mph 38 % 0.00 in
12:00 94.3 °F 62.4 °F 29.76 in SW 2.3 mph 2.3 mph 35 % 0.00 in
12:05 94.9 °F 62.1 °F 29.76 in ESE 1.2 mph 1.2 mph 34 % 0.00 in
12:10 95.2 °F 64.0 °F 29.75 in ESE 3.5 mph 3.5 mph 36 % 0.00 in
12:15 95.6 °F 62.8 °F 29.75 in East 3.5 mph 3.5 mph 34 % 0.00 in
12:20 96.0 °F 62.3 °F 29.75 in South 1.2 mph 1.2 mph 33 % 0.00 in
12:25 96.4 °F 63.5 °F 29.75 in North 2.3 mph 2.3 mph 34 % 0.00 in
12:30 96.2 °F 63.3 °F 29.75 in NNW 3.0 mph 3.0 mph 34 % 0.00 in
12:35 96.2 °F 64.1 °F 29.74 in East 2.3 mph 2.3 mph 35 % 0.00 in
12:40 96.6 °F 63.6 °F 29.74 in NW 1.2 mph 1.2 mph 34 % 0.00 in
12:46 97.0 °F 65.6 °F 29.74 in SE 1.2 mph 1.2 mph 36 % 0.00 in
12:51 97.3 °F 65.1 °F 29.74 in ESE 1.2 mph 1.2 mph 35 % 0.00 in
12:56 97.5 °F 64.4 °F 29.74 in NW 3.5 mph 3.5 mph 34 % 0.00 in
13:01 97.6 °F 63.6 °F 29.74 in NW 3.5 mph 3.5 mph 33 % 0.00 in
13:06 97.7 °F 66.2 °F 29.74 in Calm     36 % 0.00 in
13:11 97.7 °F 64.6 °F 29.73 in SE 2.0 mph 2.0 mph 34 % 0.00 in
13:16 97.9 °F 64.8 °F 29.73 in SSE 1.2 mph   34 % 0.00 in
13:21 98.1 °F 64.1 °F 29.73 in NW 2.3 mph 2.3 mph 33 % 0.00 in
13:26 97.8 °F 63.8 °F 29.73 in Calm     33 % 0.00 in
13:31 97.8 °F 63.8 °F 29.73 in WNW 1.2 mph 1.2 mph 33 % 0.00 in
13:36 97.9 °F 63.0 °F 29.73 in SSW 2.3 mph 2.3 mph 32 % 0.00 in
13:41 98.2 °F 64.2 °F 29.73 in WNW 1.2 mph 1.2 mph 33 % 0.00 in
13:46 98.7 °F 65.5 °F 29.72 in SW 1.2 mph 1.2 mph 34 % 0.00 in
13:51 98.7 °F 64.6 °F 29.72 in NW 2.3 mph 2.3 mph 33 % 0.00 in
13:56 98.9 °F 64.8 °F 29.72 in North 2.3 mph 2.3 mph 33 % 0.00 in
14:02 98.8 °F 63.8 °F 29.72 in WNW 2.3 mph 2.3 mph 32 % 0.00 in
14:07 99.1 °F 63.2 °F 29.71 in NW 2.0 mph 2.0 mph 31 % 0.00 in
14:12 99.5 °F 63.5 °F 29.71 in WNW 1.2 mph 1.2 mph 31 % 0.00 in
14:17 99.7 °F 64.6 °F 29.71 in Calm     32 % 0.00 in
14:22 100.2 °F 63.2 °F 29.71 in WNW 2.3 mph 2.3 mph 30 % 0.00 in
14:27 100.6 °F 64.5 °F 29.70 in ENE 3.5 mph 3.5 mph 31 % 0.00 in
14:32 101.0 °F 66.6 °F 29.70 in SE 1.2 mph 1.2 mph 33 % 0.00 in
14:37 101.3 °F 65.1 °F 29.69 in NW 1.2 mph 1.2 mph 31 % 0.00 in
14:42 101.1 °F 63.0 °F 29.69 in West 1.2 mph 1.2 mph 29 % 0.00 in
14:47 100.9 °F 63.8 °F 29.69 in NW 1.2 mph 1.2 mph 30 % 0.00 in
14:52 101.0 °F 62.9 °F 29.69 in WNW 3.5 mph 3.5 mph 29 % 0.00 in
14:57 100.7 °F 64.5 °F 29.68 in East 1.2 mph 1.2 mph 31 % 0.00 in
15:02 100.9 °F 64.7 °F 29.68 in West 3.5 mph 3.5 mph 31 % 0.00 in
15:07 100.8 °F 65.5 °F 29.68 in NW 3.5 mph 3.5 mph 32 % 0.00 in
15:12 101.1 °F 63.9 °F 29.68 in NW 4.6 mph 4.6 mph 30 % 0.00 in
15:17 101.1 °F 63.9 °F 29.67 in NNW 4.0 mph 4.0 mph 30 % 0.00 in
15:22 101.2 °F 62.1 °F 29.67 in NW 3.5 mph 3.5 mph 28 % 0.00 in
15:27 101.3 °F 63.2 °F 29.67 in NW 3.5 mph 3.5 mph 29 % 0.00 in
15:32 101.1 °F 63.9 °F 29.67 in NW 4.6 mph 4.6 mph 30 % 0.00 in
15:37 101.0 °F 62.9 °F 29.67 in NW 3.5 mph 3.5 mph 29 % 0.00 in
15:42 101.0 °F 62.9 °F 29.67 in West 4.6 mph 4.6 mph 29 % 0.00 in
15:47 101.0 °F 61.9 °F 29.67 in WNW 3.5 mph 3.5 mph 28 % 0.00 in
15:52 101.1 °F 63.0 °F 29.66 in NNE 3.5 mph 3.5 mph 29 % 0.00 in
15:57 101.1 °F 63.0 °F 29.66 in WNW 3.5 mph 3.5 mph 29 % 0.00 in
16:02 101.1 °F 63.9 °F 29.66 in North 3.5 mph 3.5 mph 30 % 0.00 in
16:07 101.1 °F 63.0 °F 29.66 in West 3.5 mph 3.5 mph 29 % 0.00 in
16:12 101.0 °F 61.9 °F 29.66 in NW 3.5 mph 3.5 mph 28 % 0.00 in
16:17 101.0 °F 61.9 °F 29.66 in NW 3.5 mph 3.5 mph 28 % 0.00 in
16:22 101.1 °F 64.9 °F 29.66 in NNW 3.5 mph 3.5 mph 31 % 0.00 in
16:27 101.2 °F 64.0 °F 29.66 in NW 3.5 mph 3.5 mph 30 % 0.00 in
16:32 101.2 °F 65.0 °F 29.65 in NW 4.0 mph 4.0 mph 31 % 0.00 in
16:37 101.3 °F 63.2 °F 29.65 in NW 3.5 mph 3.5 mph 29 % 0.00 in
16:42 101.2 °F 64.0 °F 29.65 in NW 3.5 mph 3.5 mph 30 % 0.00 in
16:47 101.3 °F 65.1 °F 29.65 in NW 2.3 mph 2.3 mph 31 % 0.00 in
16:52 101.5 °F 63.3 °F 29.65 in NW 3.5 mph 3.5 mph 29 % 0.00 in
16:57 101.4 °F 64.2 °F 29.65 in NNW 3.5 mph 3.5 mph 30 % 0.00 in
17:02 101.1 °F 64.9 °F 29.65 in NW 3.5 mph 3.5 mph 31 % 0.00 in
17:07 100.9 °F 64.7 °F 29.65 in NNW 3.5 mph 3.5 mph 31 % 0.00 in
17:12 100.9 °F 65.6 °F 29.65 in North 3.5 mph 3.5 mph 32 % 0.00 in
17:17 100.7 °F 64.5 °F 29.64 in NW 3.5 mph 3.5 mph 31 % 0.00 in
17:23 100.5 °F 64.4 °F 29.64 in North 3.5 mph 3.5 mph 31 % 0.00 in
17:28 100.5 °F 64.4 °F 29.65 in NW 3.5 mph 3.5 mph 31 % 0.00 in
17:33 100.4 °F 64.3 °F 29.65 in North 3.0 mph 3.0 mph 31 % 0.00 in
17:38 100.4 °F 64.3 °F 29.65 in WNW 3.5 mph 3.5 mph 31 % 0.00 in
17:43 100.3 °F 64.2 °F 29.65 in NW 2.3 mph 2.3 mph 31 % 0.00 in
17:48 100.3 °F 65.1 °F 29.65 in WNW 2.3 mph 2.3 mph 32 % 0.00 in
17:53 100.1 °F 64.0 °F 29.64 in NNW 3.5 mph 3.5 mph 31 % 0.00 in
17:58 100.0 °F 64.9 °F 29.65 in WNW 3.5 mph 3.5 mph 32 % 0.00 in
18:03 99.8 °F 65.6 °F 29.65 in NW 2.3 mph 2.3 mph 33 % 0.00 in
18:08 99.5 °F 64.4 °F 29.65 in NW 3.5 mph 3.5 mph 32 % 0.00 in
18:13 99.2 °F 65.9 °F 29.65 in NW 1.2 mph 1.2 mph 34 % 0.00 in
18:18 98.7 °F 64.6 °F 29.65 in NW 1.2 mph 1.2 mph 33 % 0.00 in
18:23 98.1 °F 64.9 °F 29.65 in NW 2.3 mph 2.3 mph 34 % 0.00 in
18:28 97.6 °F 65.3 °F 29.65 in WNW 1.2 mph 1.2 mph 35 % 0.00 in
18:33 97.1 °F 66.5 °F 29.65 in WNW 1.2 mph 1.2 mph 37 % 0.00 in
18:38 96.6 °F 66.1 °F 29.65 in WNW 1.2 mph 1.2 mph 37 % 0.00 in
18:40 96.4 °F 65.9 °F 29.65 in WNW 1.2 mph 1.2 mph 37 % 0.00 in
18:45 95.9 °F 66.2 °F 29.65 in WNW 1.2 mph 1.2 mph 38 % 0.00 in
18:50 95.5 °F 65.9 °F 29.65 in WNW 1.2 mph   38 % 0.00 in
18:55 95.0 °F 65.4 °F 29.65 in WNW 1.2 mph 1.2 mph 38 % 0.00 in
19:00 94.6 °F 65.8 °F 29.65 in WNW 1.2 mph   39 % 0.00 in
19:05 94.2 °F 65.4 °F 29.65 in Calm     39 % 0.00 in
19:10 93.8 °F 65.8 °F 29.65 in Calm     40 % 0.00 in
19:15 93.4 °F 66.9 °F 29.65 in Calm     42 % 0.00 in
19:20 92.8 °F 67.0 °F 29.66 in Calm     43 % 0.00 in
19:25 92.0 °F 66.3 °F 29.66 in Calm     43 % 0.00 in
19:30 91.3 °F 67.6 °F 29.66 in Calm     46 % 0.00 in
19:35 90.6 °F 67.6 °F 29.66 in Calm     47 % 0.00 in
19:40 90.0 °F 68.3 °F 29.66 in Calm     49 % 0.00 in
19:45 89.4 °F 68.9 °F 29.66 in Calm     51 % 0.00 in
19:51 88.8 °F 68.9 °F 29.66 in Calm     52 % 0.00 in
19:56 88.2 °F 67.8 °F 29.67 in Calm     51 % 0.00 in
20:01 87.7 °F 67.3 °F 29.67 in Calm     51 % 0.00 in
20:06 87.4 °F 68.7 °F 29.67 in Calm     54 % 0.00 in
20:11 86.9 °F 67.2 °F 29.67 in Calm     52 % 0.00 in
20:16 86.7 °F 68.1 °F 29.67 in Calm     54 % 0.00 in
20:21 86.5 °F 67.9 °F 29.68 in Calm     54 % 0.00 in
20:22 86.3 °F 67.7 °F 29.68 in Calm     54 % 0.00 in
20:25 86.2 °F 67.6 °F 29.68 in Calm     54 % 0.00 in
20:30 86.2 °F 67.6 °F 29.68 in Calm     54 % 0.00 in
20:33 86.3 °F 68.2 °F 29.68 in Calm     55 % 0.00 in
20:38 85.7 °F 67.7 °F 29.68 in Calm     55 % 0.00 in
20:43 85.3 °F 66.2 °F 29.69 in Calm     53 % 0.00 in
20:48 85.0 °F 68.1 °F 29.69 in Calm     57 % 0.00 in
20:53 84.7 °F 67.8 °F 29.69 in Calm     57 % 0.00 in
20:58 84.5 °F 67.6 °F 29.69 in Calm     57 % 0.00 in
21:03 84.1 °F 68.2 °F 29.69 in Calm     59 % 0.00 in
21:08 83.6 °F 68.2 °F 29.69 in Calm     60 % 0.00 in
21:13 83.1 °F 69.2 °F 29.70 in NW 1.2 mph   63 % 0.00 in
21:18 82.8 °F 68.4 °F 29.70 in Calm     62 % 0.00 in
21:23 82.7 °F 68.4 °F 29.70 in Calm     62 % 0.00 in
21:28 82.5 °F 68.6 °F 29.70 in Calm     63 % 0.00 in
21:33 82.3 °F 68.0 °F 29.71 in Calm     62 % 0.00 in
21:38 82.1 °F 67.8 °F 29.71 in Calm     62 % 0.00 in
21:43 82.0 °F 68.2 °F 29.71 in Calm     63 % 0.00 in
21:48 81.8 °F 68.4 °F 29.71 in Calm     64 % 0.00 in
21:53 81.7 °F 68.3 °F 29.71 in Calm     64 % 0.00 in
21:58 81.4 °F 68.1 °F 29.72 in Calm     64 % 0.00 in
22:03 81.4 °F 68.1 °F 29.72 in Calm     64 % 0.00 in
22:08 81.4 °F 67.6 °F 29.72 in Calm     63 % 0.00 in
22:13 81.4 °F 67.6 °F 29.72 in Calm     63 % 0.00 in
22:18 81.6 °F 68.2 °F 29.72 in Calm     64 % 0.00 in
22:23 81.5 °F 67.7 °F 29.72 in SE 1.0 mph   63 % 0.00 in
22:28 81.2 °F 67.9 °F 29.72 in SE 1.2 mph   64 % 0.00 in
22:33 80.9 °F 67.1 °F 29.72 in Calm   0.1 mph 63 % 0.00 in
22:38 80.7 °F 67.4 °F 29.72 in Calm     64 % 0.00 in
22:43 80.5 °F 67.2 °F 29.72 in Calm     64 % 0.00 in
22:48 80.5 °F 67.6 °F 29.73 in Calm   0.1 mph 65 % 0.00 in
22:53 80.5 °F 67.2 °F 29.73 in SE 1.2 mph 1.2 mph 64 % 0.00 in
22:58 80.5 °F 67.2 °F 29.73 in Calm     64 % 0.00 in
23:03 80.5 °F 67.6 °F 29.73 in Calm     65 % 0.00 in
23:08 80.4 °F 67.6 °F 29.73 in Calm     65 % 0.00 in
23:13 80.4 °F 66.6 °F 29.73 in Calm     63 % 0.00 in
23:18 80.6 °F 66.8 °F 29.73 in ESE 1.2 mph   63 % 0.00 in
23:23 80.7 °F 67.4 °F 29.73 in Calm     64 % 0.00 in
23:28 80.5 °F 67.2 °F 29.73 in Calm     64 % 0.00 in
23:33 80.3 °F 67.5 °F 29.73 in Calm     65 % 0.00 in
23:38 80.5 °F 66.7 °F 29.74 in Calm     63 % 0.00 in
23:43 80.5 °F 66.7 °F 29.74 in Calm     63 % 0.00 in
23:48 80.5 °F 67.2 °F 29.74 in Calm     64 % 0.00 in
23:53 80.6 °F 66.4 °F 29.74 in Calm     62 % 0.00 in
23:58 80.5 °F 68.1 °F 29.75 in Calm     66 % 0.00 in
Park Place, Exeter, Tulare County, California, USA
Compliments of Weather Underground - 2.75 mb